createdAt,value
2022-12-26T00:01:23.554Z,1.40
2022-12-26T00:03:52.466Z,1.39
2022-12-26T00:06:25.462Z,1.37
2022-12-26T00:08:54.096Z,1.40
2022-12-26T00:11:23.849Z,1.40
2022-12-26T00:14:05.706Z,1.40
2022-12-26T00:16:34.347Z,1.39
2022-12-26T00:19:03.216Z,1.37
2022-12-26T00:21:31.514Z,1.35
2022-12-26T00:24:00.788Z,1.32
2022-12-26T00:26:34.286Z,1.30
2022-12-26T00:29:02.230Z,1.29
2022-12-26T00:31:33.149Z,1.26
2022-12-26T00:34:01.657Z,1.27
2022-12-26T00:36:33.072Z,1.25
2022-12-26T00:39:03.710Z,1.26
2022-12-26T00:41:32.459Z,1.22
2022-12-26T00:44:04.077Z,1.23
2022-12-26T00:46:33.883Z,1.22
2022-12-26T00:49:03.832Z,1.20
2022-12-26T00:51:33.574Z,1.22
2022-12-26T00:54:01.479Z,1.22
2022-12-26T00:56:30.105Z,1.22
2022-12-26T00:58:57.936Z,1.22
2022-12-26T01:01:32.444Z,1.21
2022-12-26T01:04:01.359Z,1.22
2022-12-26T01:06:30.851Z,1.23
2022-12-26T01:08:59.296Z,1.25
2022-12-26T01:11:39.713Z,1.25
2022-12-26T01:14:18.779Z,1.24
2022-12-26T01:16:49.238Z,1.24
2022-12-26T01:19:17.498Z,1.25
2022-12-26T01:21:45.812Z,1.24
2022-12-26T01:24:14.363Z,1.24
2022-12-26T01:26:42.090Z,1.24
2022-12-26T01:29:11.492Z,1.23
2022-12-26T01:31:39.387Z,1.23
2022-12-26T01:34:08.990Z,1.22
2022-12-26T01:36:39.835Z,1.22
2022-12-26T01:39:09.184Z,1.22
2022-12-26T01:41:37.625Z,1.20
2022-12-26T01:44:27.140Z,1.21
2022-12-26T01:46:54.936Z,1.21
2022-12-26T01:49:36.476Z,1.18
2022-12-26T01:52:08.923Z,1.17
2022-12-26T01:54:42.988Z,1.15
2022-12-26T01:57:18.997Z,1.13
2022-12-26T01:59:49.016Z,1.13
2022-12-26T02:02:21.073Z,1.12
2022-12-26T02:05:10.175Z,1.11
2022-12-26T02:07:45.033Z,1.09
2022-12-26T02:10:19.997Z,1.06
2022-12-26T02:12:49.904Z,1.05
2022-12-26T02:15:18.927Z,1.05
2022-12-26T02:17:50.337Z,1.04
2022-12-26T02:20:26.110Z,1.01
2022-12-26T02:23:22.359Z,0.97
2022-12-26T02:26:27.304Z,0.94
2022-12-26T02:29:35.603Z,0.90
2022-12-26T02:32:17.690Z,0.90
2022-12-26T02:34:59.816Z,0.88
2022-12-26T02:37:49.894Z,0.80
2022-12-26T02:40:45.673Z,0.89
2022-12-26T02:43:30.987Z,0.90
2022-12-26T02:46:50.326Z,0.90
2022-12-26T02:49:40.606Z,0.87
2022-12-26T02:52:35.364Z,0.83
2022-12-26T02:55:38.936Z,0.80
2022-12-26T02:58:36.697Z,0.76
2022-12-26T03:01:34.540Z,0.75
2022-12-26T03:04:24.694Z,0.70
2022-12-26T03:07:16.575Z,0.69
2022-12-26T03:10:05.321Z,0.69
2022-12-26T03:13:02.722Z,0.68
2022-12-26T03:15:36.597Z,0.56
2022-12-26T03:18:08.259Z,0.67
2022-12-26T03:20:38.309Z,0.65
2022-12-26T03:23:11.554Z,0.65
2022-12-26T03:26:21.284Z,0.63
2022-12-26T03:28:50.132Z,0.61
2022-12-26T03:31:18.058Z,0.61
2022-12-26T03:34:05.560Z,0.63
2022-12-26T03:36:58.064Z,0.62
2022-12-26T03:40:24.813Z,0.62
2022-12-26T03:43:37.880Z,0.59
2022-12-26T03:46:41.122Z,0.57
2022-12-26T03:49:46.477Z,0.54
2022-12-26T03:53:15.554Z,0.50
2022-12-26T03:56:28.091Z,0.46
2022-12-26T03:59:28.094Z,0.42
2022-12-26T04:02:18.700Z,0.42
2022-12-26T04:04:49.630Z,0.42
2022-12-26T04:07:56.581Z,0.44
2022-12-26T04:10:46.043Z,0.44
2022-12-26T04:13:40.437Z,0.43
2022-12-26T04:16:38.279Z,0.43
2022-12-26T04:19:36.087Z,0.44
2022-12-26T04:22:41.959Z,0.43
2022-12-26T04:25:50.177Z,0.42
2022-12-26T04:28:29.477Z,0.39
2022-12-26T04:31:21.280Z,0.38
2022-12-26T04:34:18.346Z,0.38
2022-12-26T04:37:12.732Z,0.41
2022-12-26T04:40:03.352Z,0.42
2022-12-26T04:42:51.390Z,0.43
2022-12-26T04:45:21.664Z,0.46
2022-12-26T04:48:10.883Z,0.50
2022-12-26T04:50:51.085Z,0.53
2022-12-26T04:53:20.224Z,0.58
2022-12-26T04:55:48.362Z,0.63
2022-12-26T04:58:17.356Z,0.68
2022-12-26T05:00:45.468Z,0.74
2022-12-26T05:03:32.876Z,0.79
2022-12-26T05:06:19.580Z,0.81
2022-12-26T05:09:06.079Z,0.80
2022-12-26T05:11:34.914Z,0.84
2022-12-26T05:14:02.812Z,0.87
2022-12-26T05:16:48.887Z,0.89
2022-12-26T05:19:36.000Z,0.93
2022-12-26T05:22:23.846Z,0.99
2022-12-26T05:25:11.133Z,1.00
2022-12-26T05:28:01.746Z,1.03
2022-12-26T05:30:29.671Z,1.02
2022-12-26T05:33:15.957Z,1.02
2022-12-26T05:35:44.519Z,1.01
2022-12-26T05:38:12.348Z,1.03
2022-12-26T05:40:43.132Z,1.05
2022-12-26T05:43:11.095Z,1.08
2022-12-26T05:45:38.698Z,1.11
2022-12-26T05:48:06.403Z,1.13
2022-12-26T05:50:34.104Z,1.17
2022-12-26T05:53:03.426Z,1.19
2022-12-26T05:55:31.158Z,1.21
2022-12-26T05:58:02.798Z,1.23
2022-12-26T06:00:31.027Z,1.24
2022-12-26T06:03:00.438Z,1.24
2022-12-26T06:05:28.823Z,1.23
2022-12-26T06:07:57.091Z,1.24
2022-12-26T06:10:26.491Z,1.23
2022-12-26T06:12:57.521Z,1.23
2022-12-26T06:15:25.190Z,1.25
2022-12-26T06:17:56.161Z,1.24
2022-12-26T06:20:24.116Z,1.24
2022-12-26T06:22:52.048Z,1.25
2022-12-26T06:25:21.702Z,1.28
2022-12-26T06:27:49.549Z,1.28
2022-12-26T06:30:18.615Z,1.30
2022-12-26T06:32:49.574Z,1.31
2022-12-26T06:35:17.112Z,1.32
2022-12-26T06:37:44.793Z,1.28
2022-12-26T06:40:14.436Z,1.32
2022-12-26T06:42:42.227Z,1.32
2022-12-26T06:45:11.070Z,1.32
2022-12-26T06:47:40.845Z,1.33
2022-12-26T06:50:09.590Z,1.34
2022-12-26T06:52:37.940Z,1.38
2022-12-26T06:55:08.954Z,1.43
2022-12-26T06:57:38.495Z,1.47
2022-12-26T07:00:07.631Z,1.53
2022-12-26T07:02:35.844Z,1.58
2022-12-26T07:05:04.520Z,1.64
2022-12-26T07:07:32.453Z,1.69
2022-12-26T07:10:00.753Z,1.72
2022-12-26T07:12:28.549Z,1.76
2022-12-26T07:15:01.786Z,1.82
2022-12-26T07:17:29.770Z,1.87
2022-12-26T07:19:57.708Z,1.93
2022-12-26T07:22:25.353Z,2.00
2022-12-26T07:24:56.116Z,2.05
2022-12-26T07:27:24.697Z,2.11
2022-12-26T07:29:52.775Z,2.18
2022-12-26T07:32:20.499Z,2.23
2022-12-26T07:34:49.543Z,2.28
2022-12-26T07:37:16.831Z,2.34
2022-12-26T07:39:44.745Z,2.38
2022-12-26T07:42:12.756Z,2.43
2022-12-26T07:44:41.587Z,2.46
2022-12-26T07:47:09.339Z,2.51
2022-12-26T07:49:37.137Z,2.55
2022-12-26T07:52:05.235Z,2.57
2022-12-26T07:54:33.380Z,2.61
2022-12-26T07:57:29.832Z,2.63
2022-12-26T07:59:31.193Z,2.67
2022-12-26T08:01:59.496Z,2.65
2022-12-26T08:04:28.337Z,2.65
2022-12-26T08:06:56.257Z,2.68
2022-12-26T08:09:25.773Z,2.71
2022-12-26T08:11:53.478Z,2.74
2022-12-26T08:14:21.209Z,2.78
2022-12-26T08:16:53.258Z,2.82
2022-12-26T08:19:18.341Z,2.87
2022-12-26T08:21:45.851Z,2.94
2022-12-26T08:24:14.626Z,2.98
2022-12-26T08:26:42.619Z,3.03
2022-12-26T08:29:10.680Z,3.07
2022-12-26T08:31:39.280Z,3.13
2022-12-26T08:34:07.064Z,3.20
2022-12-26T08:36:36.242Z,3.27
2022-12-26T08:39:04.344Z,3.31
2022-12-26T08:41:32.009Z,3.35
2022-12-26T08:46:29.441Z,3.43
2022-12-26T08:48:57.595Z,3.48
2022-12-26T08:51:25.186Z,3.51
2022-12-26T08:53:54.929Z,3.55
2022-12-26T08:56:25.941Z,3.59
2022-12-26T08:58:53.886Z,3.62
2022-12-26T09:01:26.074Z,3.66
2022-12-26T09:03:56.736Z,3.67
2022-12-26T09:06:26.258Z,3.70
2022-12-26T09:08:55.441Z,3.73
2022-12-26T09:11:28.874Z,3.76
2022-12-26T09:14:00.140Z,3.78
2022-12-26T09:16:37.805Z,3.82
2022-12-26T09:19:03.049Z,3.88
2022-12-26T09:21:33.463Z,3.92
2022-12-26T09:24:05.325Z,3.95
2022-12-26T09:26:33.869Z,3.99
2022-12-26T09:29:02.058Z,4.01
2022-12-26T09:31:33.493Z,4.04
2022-12-26T09:34:05.574Z,4.06
2022-12-26T09:36:39.593Z,4.10
2022-12-26T09:39:08.861Z,4.14
2022-12-26T09:42:03.352Z,4.16
2022-12-26T09:44:59.349Z,4.21
2022-12-26T09:47:37.726Z,4.31
2022-12-26T09:50:25.676Z,4.40
2022-12-26T09:52:58.703Z,4.47
2022-12-26T09:55:52.169Z,4.55
2022-12-26T09:58:31.165Z,4.62
2022-12-26T10:01:07.667Z,4.68
2022-12-26T10:03:46.339Z,4.76
2022-12-26T10:06:22.075Z,4.82
2022-12-26T10:09:36.938Z,4.85
2022-12-26T10:12:46.741Z,4.89
2022-12-26T10:15:39.892Z,4.93
2022-12-26T10:18:16.243Z,4.98
2022-12-26T10:21:26.673Z,5.02
2022-12-26T10:24:03.219Z,5.06
2022-12-26T10:26:41.579Z,5.13
2022-12-26T10:29:23.929Z,5.16
2022-12-26T10:32:08.589Z,5.21
2022-12-26T10:34:44.018Z,5.28
2022-12-26T10:37:24.108Z,5.33
2022-12-26T10:40:18.546Z,5.42
2022-12-26T10:42:53.483Z,5.46
2022-12-26T10:45:44.762Z,5.49
2022-12-26T10:48:17.123Z,5.54
2022-12-26T10:50:48.602Z,5.60
2022-12-26T10:53:19.331Z,5.67
2022-12-26T10:55:46.976Z,5.72
2022-12-26T10:58:34.092Z,5.75
2022-12-26T11:01:37.796Z,5.80
2022-12-26T11:04:18.799Z,5.85
2022-12-26T11:06:48.585Z,5.91
2022-12-26T11:09:40.063Z,5.97
2022-12-26T11:12:38.235Z,6.01
2022-12-26T11:15:30.156Z,6.06
2022-12-26T11:18:18.520Z,6.08
2022-12-26T11:20:48.389Z,6.08
2022-12-26T11:23:33.686Z,6.07
2022-12-26T11:26:02.249Z,6.07
2022-12-26T11:28:36.940Z,6.08
2022-12-26T11:31:09.844Z,6.10
2022-12-26T11:33:46.470Z,6.13
2022-12-26T11:36:19.093Z,6.16
2022-12-26T11:39:01.152Z,6.17
2022-12-26T11:41:38.598Z,6.19
2022-12-26T11:44:30.903Z,6.19
2022-12-26T11:47:13.207Z,6.21
2022-12-26T11:49:52.460Z,6.21
2022-12-26T11:52:59.434Z,6.21
2022-12-26T11:55:37.479Z,6.27
2022-12-26T11:58:13.868Z,6.33
2022-12-26T12:01:02.654Z,6.45
2022-12-26T12:03:49.648Z,6.55
2022-12-26T12:06:50.639Z,6.62
2022-12-26T12:09:43.719Z,6.69
2022-12-26T12:12:40.317Z,6.76
2022-12-26T12:15:28.888Z,6.79
2022-12-26T12:18:14.296Z,6.85
2022-12-26T12:21:14.157Z,6.91
2022-12-26T12:23:49.994Z,6.97
2022-12-26T12:26:32.015Z,7.06
2022-12-26T12:29:17.091Z,7.17
2022-12-26T12:32:07.536Z,7.27
2022-12-26T12:35:03.718Z,7.35
2022-12-26T12:38:05.726Z,7.46
2022-12-26T12:41:04.359Z,7.56
2022-12-26T12:43:48.416Z,7.61
2022-12-26T12:46:48.960Z,7.64
2022-12-26T12:49:43.037Z,7.69
2022-12-26T12:52:19.579Z,7.73
2022-12-26T12:55:23.130Z,7.75
2022-12-26T12:58:13.086Z,7.76
2022-12-26T13:00:45.654Z,7.76
2022-12-26T13:03:21.321Z,7.83
2022-12-26T13:06:06.831Z,7.88
2022-12-26T13:08:46.028Z,7.96
2022-12-26T13:11:33.588Z,8.03
2022-12-26T13:14:12.429Z,8.07
2022-12-26T13:16:45.532Z,8.12
2022-12-26T13:19:38.400Z,8.10
2022-12-26T13:22:17.149Z,8.06
2022-12-26T13:24:49.543Z,8.00
2022-12-26T13:27:31.718Z,7.89
2022-12-26T13:29:59.671Z,7.80
2022-12-26T13:32:33.465Z,7.70
2022-12-26T13:35:03.933Z,7.59
2022-12-26T13:37:41.383Z,7.52
2022-12-26T13:40:21.576Z,7.44
2022-12-26T13:43:37.840Z,7.39
2022-12-26T13:46:26.552Z,7.31
2022-12-26T13:48:57.962Z,7.23
2022-12-26T13:51:44.975Z,7.18
2022-12-26T13:54:15.029Z,7.13
2022-12-26T13:56:51.114Z,7.10
2022-12-26T13:59:30.141Z,7.06
2022-12-26T14:02:25.030Z,7.02
2022-12-26T14:05:29.258Z,6.97
2022-12-26T14:08:30.281Z,6.91
2022-12-26T14:11:35.959Z,6.86
2022-12-26T14:14:27.382Z,6.78
2022-12-26T14:17:12.461Z,6.71
2022-12-26T14:20:08.594Z,6.65
2022-12-26T14:22:54.255Z,6.58
2022-12-26T14:25:33.681Z,6.52
2022-12-26T14:28:23.361Z,6.47
2022-12-26T14:31:08.563Z,6.40
2022-12-26T14:34:10.679Z,6.33
2022-12-26T14:37:01.296Z,6.26
2022-12-26T14:40:10.319Z,6.18
2022-12-26T14:43:13.561Z,6.07
2022-12-26T14:45:50.424Z,5.99
2022-12-26T14:48:29.919Z,5.92
2022-12-26T14:51:21.327Z,5.87
2022-12-26T14:54:26.675Z,5.82
2022-12-26T14:56:55.234Z,5.78
2022-12-26T14:59:32.904Z,5.74
2022-12-26T15:02:12.344Z,5.71
2022-12-26T15:04:48.823Z,5.67
2022-12-26T15:07:40.353Z,5.64
2022-12-26T15:10:25.678Z,5.60
2022-12-26T15:13:29.221Z,5.55
2022-12-26T15:16:48.157Z,5.46
2022-12-26T15:19:36.633Z,5.38
2022-12-26T15:22:59.962Z,5.30
2022-12-26T15:26:05.367Z,5.25
2022-12-26T15:29:07.930Z,5.18
2022-12-26T15:31:52.568Z,5.14
2022-12-26T15:34:43.691Z,5.11
2022-12-26T15:37:41.275Z,5.08
2022-12-26T15:40:17.393Z,5.06
2022-12-26T15:43:16.751Z,5.01
2022-12-26T15:46:04.962Z,5.01
2022-12-26T15:48:55.260Z,4.98
2022-12-26T15:51:55.786Z,4.96
2022-12-26T15:54:42.791Z,4.94
2022-12-26T15:57:18.927Z,4.89
2022-12-26T16:00:13.474Z,4.84
2022-12-26T16:03:06.678Z,4.80
2022-12-26T16:05:59.379Z,4.75
2022-12-26T16:08:47.369Z,4.68
2022-12-26T16:11:23.099Z,4.63
2022-12-26T16:13:59.312Z,4.55
2022-12-26T16:16:37.575Z,4.51
2022-12-26T16:19:25.637Z,4.45
2022-12-26T16:22:19.119Z,4.40
2022-12-26T16:24:50.533Z,4.33
2022-12-26T16:27:23.355Z,4.26
2022-12-26T16:30:09.940Z,4.21
2022-12-26T16:32:40.230Z,4.17
2022-12-26T16:35:28.481Z,4.12
2022-12-26T16:37:59.343Z,4.08
2022-12-26T16:40:36.922Z,4.05
2022-12-26T16:43:07.800Z,4.03
2022-12-26T16:45:38.005Z,3.98
2022-12-26T16:48:08.491Z,3.92
2022-12-26T16:50:47.837Z,3.90
2022-12-26T16:53:25.986Z,3.83
2022-12-26T16:56:14.639Z,3.80
2022-12-26T16:58:42.210Z,3.77
2022-12-26T17:01:20.182Z,3.71
2022-12-26T17:03:56.021Z,3.69
2022-12-26T17:06:32.193Z,3.66
2022-12-26T17:09:10.607Z,3.64
2022-12-26T17:11:54.866Z,3.63
2022-12-26T17:14:40.323Z,3.62
2022-12-26T17:17:25.493Z,3.58
2022-12-26T17:19:57.558Z,3.55
2022-12-26T17:22:34.086Z,3.51
2022-12-26T17:25:28.839Z,3.50
2022-12-26T17:28:17.448Z,3.50
2022-12-26T17:30:48.171Z,3.53
2022-12-26T17:33:20.823Z,3.54
2022-12-26T17:36:52.421Z,3.57
2022-12-26T17:38:29.998Z,3.61
2022-12-26T17:41:02.049Z,3.64
2022-12-26T17:43:37.129Z,3.68
2022-12-26T17:46:07.571Z,3.73
2022-12-26T17:48:35.473Z,3.77
2022-12-26T17:51:07.294Z,3.83
2022-12-26T17:53:45.569Z,3.89
2022-12-26T17:56:21.378Z,3.93
2022-12-26T17:58:50.064Z,3.97
2022-12-26T18:01:21.393Z,4.00
2022-12-26T18:03:48.418Z,4.02
2022-12-26T18:06:17.528Z,4.04
2022-12-26T18:08:45.711Z,4.07
2022-12-26T18:11:15.011Z,4.10
2022-12-26T18:13:43.741Z,4.13
2022-12-26T18:16:17.255Z,4.15
2022-12-26T18:18:46.858Z,4.18
2022-12-26T18:21:15.982Z,4.22
2022-12-26T18:23:44.080Z,4.25
2022-12-26T18:26:20.476Z,4.27
2022-12-26T18:28:53.942Z,4.30
2022-12-26T18:31:24.642Z,4.33
2022-12-26T18:33:52.421Z,4.34
2022-12-26T18:36:22.803Z,4.37
2022-12-26T18:38:50.955Z,4.39
2022-12-26T18:41:20.215Z,4.40
2022-12-26T18:43:48.361Z,4.41
2022-12-26T18:46:19.681Z,4.43
2022-12-26T18:48:48.405Z,4.45
2022-12-26T18:51:16.452Z,4.48
2022-12-26T18:53:44.291Z,4.49
2022-12-26T18:56:17.764Z,4.50
2022-12-26T18:58:49.148Z,4.51
2022-12-26T19:01:18.651Z,4.53
2022-12-26T19:03:47.575Z,4.56
2022-12-26T19:06:25.682Z,4.57
2022-12-26T19:08:53.639Z,4.60
2022-12-26T19:11:21.625Z,4.61
2022-12-26T19:13:51.360Z,4.62
2022-12-26T19:16:19.720Z,4.63
2022-12-26T19:18:47.494Z,4.65
2022-12-26T19:21:18.679Z,4.66
2022-12-26T19:23:47.435Z,4.68
2022-12-26T19:26:17.882Z,4.71
2022-12-26T19:28:52.143Z,4.73
2022-12-26T19:31:21.134Z,4.73
2022-12-26T19:33:49.183Z,4.76
2022-12-26T19:36:17.127Z,4.78
2022-12-26T19:38:44.855Z,4.78
2022-12-26T19:41:14.203Z,4.78
2022-12-26T19:43:42.782Z,4.80
2022-12-26T19:46:17.432Z,4.82
2022-12-26T19:48:45.317Z,4.84
2022-12-26T19:51:15.826Z,4.84
2022-12-26T19:53:45.708Z,4.84
2022-12-26T19:56:23.561Z,4.85
2022-12-26T19:58:56.477Z,4.87
2022-12-26T20:01:27.176Z,4.87
2022-12-26T20:03:58.861Z,4.89
2022-12-26T20:06:30.397Z,4.91
2022-12-26T20:09:00.969Z,4.91
2022-12-26T20:11:32.617Z,4.91
2022-12-26T20:14:02.087Z,4.90
2022-12-26T20:17:03.982Z,4.89
2022-12-26T20:18:59.636Z,4.87
2022-12-26T20:21:27.259Z,4.87
2022-12-26T20:23:59.056Z,4.87
2022-12-26T20:26:30.068Z,4.89
2022-12-26T20:29:02.980Z,4.89
2022-12-26T20:31:32.952Z,4.91
2022-12-26T20:34:02.973Z,4.92
2022-12-26T20:36:34.928Z,4.94
2022-12-26T20:39:07.461Z,4.97
2022-12-26T20:41:35.426Z,4.98
2022-12-26T20:44:03.580Z,4.99
2022-12-26T20:46:33.309Z,5.01
2022-12-26T20:49:03.967Z,5.02
2022-12-26T20:51:37.730Z,5.05
2022-12-26T20:54:06.070Z,5.06
2022-12-26T20:56:35.212Z,5.06
2022-12-26T20:59:04.487Z,5.07
2022-12-26T21:01:32.890Z,5.07
2022-12-26T21:04:01.976Z,5.07
2022-12-26T21:06:34.305Z,5.07
2022-12-26T21:09:03.907Z,5.07
2022-12-26T21:11:35.756Z,5.08
2022-12-26T21:14:10.899Z,5.08
2022-12-26T21:16:41.727Z,5.09
2022-12-26T21:19:15.073Z,5.10
2022-12-26T21:21:43.448Z,5.10
2022-12-26T21:24:22.326Z,5.10
2022-12-26T21:26:56.661Z,5.10
2022-12-26T21:29:29.410Z,5.12
2022-12-26T21:31:58.413Z,5.13
2022-12-26T21:34:29.576Z,5.07
2022-12-26T21:37:16.582Z,5.19
2022-12-26T21:39:44.529Z,5.21
2022-12-26T21:42:12.361Z,5.22
2022-12-26T21:44:40.178Z,5.22
2022-12-26T21:47:08.483Z,5.22
2022-12-26T21:49:37.179Z,5.22
2022-12-26T21:52:07.020Z,5.22
2022-12-26T21:55:02.531Z,5.23
2022-12-26T21:57:32.505Z,5.22
2022-12-26T22:00:03.898Z,5.25
2022-12-26T22:02:56.930Z,5.28
2022-12-26T22:05:27.692Z,5.26
2022-12-26T22:07:59.282Z,5.26
2022-12-26T22:10:50.157Z,5.25
2022-12-26T22:13:21.051Z,5.25
2022-12-26T22:16:06.455Z,5.23
2022-12-26T22:18:44.051Z,5.23
2022-12-26T22:21:16.849Z,5.23
2022-12-26T22:23:46.041Z,5.22
2022-12-26T22:26:14.945Z,5.20
2022-12-26T22:28:44.236Z,5.21
2022-12-26T22:31:23.381Z,5.20
2022-12-26T22:34:01.045Z,5.21
2022-12-26T22:36:30.402Z,5.20
2022-12-26T22:38:59.324Z,5.21
2022-12-26T22:41:28.325Z,5.20
2022-12-26T22:43:56.986Z,5.20
2022-12-26T22:46:25.061Z,5.18
2022-12-26T22:48:53.302Z,5.15
2022-12-26T22:51:24.901Z,5.11
2022-12-26T22:53:58.508Z,5.08
2022-12-26T22:56:27.609Z,5.08
2022-12-26T22:58:59.940Z,5.08
2022-12-26T23:01:28.253Z,5.07
2022-12-26T23:03:56.083Z,5.06
2022-12-26T23:06:28.234Z,5.02
2022-12-26T23:08:59.582Z,5.01
2022-12-26T23:11:34.960Z,4.99
2022-12-26T23:14:04.753Z,5.00
2022-12-26T23:16:43.891Z,4.98
2022-12-26T23:19:37.603Z,4.98
2022-12-26T23:22:05.888Z,4.98
2022-12-26T23:24:33.820Z,4.95
2022-12-26T23:27:25.786Z,4.93
2022-12-26T23:30:13.575Z,4.93
2022-12-26T23:32:43.791Z,4.93
2022-12-26T23:35:12.609Z,4.92
2022-12-26T23:37:42.378Z,4.93
2022-12-26T23:40:12.840Z,4.92
2022-12-26T23:42:41.318Z,4.91
2022-12-26T23:45:11.712Z,4.91
2022-12-26T23:47:43.439Z,4.90
2022-12-26T23:50:13.992Z,4.87
2022-12-26T23:52:42.596Z,4.88
2022-12-26T23:55:10.883Z,4.88
2022-12-26T23:57:38.875Z,4.88
